Flight Track Log - Related Links

Times and Time Zones

All times are in EDT time to prevent confusion due to time zone crossing. See the N717AN flight status page for this flight to view local times or setup timezone preferences in your user account.

Time Position Orientation Groundspeed Altitude Reporting Facility
EDT Latitude Longitude Course Direction KTS MPH feet Rate Location/Type
Tue 08:57:11 PM -23.4320 -46.4760 90° East 105 121  Level FlightAware ADS-B
Tue 08:57:32 PM -23.4280 -46.4610 74° East 177 204 4,400 Level FlightAware ADS-B
Tue 08:57:56 PM -23.4220 -46.4380 74° East 186 214 3,300 5,455 Climbing FlightAware ADS-B
Tue 08:58:16 PM -23.4170 -46.4220 71° East 190 219 4,000 1,610 Climbing FlightAware ADS-B
Tue 08:58:37 PM -23.4100 -46.3990 72° East 226 260 4,400 1,200 Climbing FlightAware ADS-B
Tue 08:59:01 PM -23.4020 -46.3710 73° East 258 297 4,900 1,846 Climbing FlightAware ADS-B
Tue 08:59:16 PM -23.3960 -46.3500 73° East 270 311 5,600 2,700 Climbing FlightAware ADS-B
Tue 08:59:41 PM -23.3860 -46.3160 72° East 280 322 6,700 2,800 Climbing FlightAware ADS-B
Tue 09:00:01 PM -23.3770 -46.2880 71° East 286 329 7,700 2,488 Climbing FlightAware ADS-B
Tue 09:00:22 PM -23.3700 -46.2680 69° East 289 333 8,400 2,400 Climbing FlightAware ADS-B
Tue 09:00:31 PM -23.3590 -46.2520 53° Northeast 290 334 8,900 3,000 Climbing FlightAware ADS-B
Tue 09:00:36 PM -23.3530 -46.2460 43° Northeast 296 341 9,100 2,400 Climbing FlightAware ADS-B
Tue 09:00:41 PM -23.3470 -46.2430 25° Northeast 293 337 9,300 2,400 Climbing FlightAware ADS-B
Tue 09:00:51 PM -23.3330 -46.2380 18° North 301 346 9,700 2,267 Climbing FlightAware ADS-B
Tue 09:01:26 PM -23.2860 -46.2250 14° North 316 364 11,000 1,629 Climbing FlightAware ADS-B
Tue 09:02:01 PM -23.2310 -46.2110 13° North 363 418 11,600 1,268 Climbing FlightAware ADS-B
Tue 09:02:37 PM -23.1690 -46.1930 15° North 397 457 12,500 2,132 Climbing FlightAware ADS-B
Tue 09:03:17 PM -23.0980 -46.1770 12° North 391 450 14,300 2,647 Climbing FlightAware ADS-B
Tue 09:03:45 PM -23.0440 -46.1800 357° North 435 501 15,500 2,585 Climbing FlightAware ADS-B
Tue 09:04:22 PM -22.9760 -46.1920 351° North 405 466 17,100 2,507 Climbing FlightAware ADS-B
Tue 09:04:52 PM -22.9210 -46.2020 350° North 410 472 18,300 2,314 Climbing FlightAware ADS-B
Tue 09:05:32 PM -22.8430 -46.2150 351° North 410 472 19,800 2,000 Climbing FlightAware ADS-B
Tue 09:06:07 PM -22.7760 -46.2270 351° North 421 484 20,800 1,800 Climbing FlightAware ADS-B
Tue 09:06:42 PM -22.7060 -46.2390 351° North 437 503 21,900 1,909 Climbing FlightAware ADS-B
Tue 09:07:13 PM -22.6440 -46.2500 351° North 436 502 22,900 1,886 Climbing FlightAware ADS-B
Tue 09:07:52 PM -22.5620 -46.2640 351° North 442 509 24,100 1,840 Climbing FlightAware ADS-B
Tue 09:08:28 PM -22.4890 -46.2760 351° North 456 525 25,200 1,846 Climbing FlightAware ADS-B
Tue 09:08:57 PM -22.4270 -46.2870 351° North 452 520 26,100 1,662 Climbing FlightAware ADS-B
Tue 09:09:33 PM -22.3520 -46.2990 352° North 456 525 27,000 1,520 Climbing FlightAware ADS-B
Tue 09:10:12 PM -22.2660 -46.3140 351° North 471 542 28,000 1,350 Climbing FlightAware ADS-B
Tue 09:10:53 PM -22.1780 -46.3290 351° North 475 547 28,800 1,120 Climbing FlightAware ADS-B
Tue 09:11:27 PM -22.1030 -46.3410 352° North 491 565 29,400 1,371 Climbing FlightAware ADS-B
Tue 09:12:03 PM -22.0200 -46.3570 350° North 492 566 30,400 1,371 Climbing FlightAware ADS-B
Tue 09:12:37 PM -21.9440 -46.3720 350° North 489 563 31,000 474 Climbing FlightAware ADS-B
Tue 09:13:19 PM -21.8460 -46.3890 351° North 492 566 31,000  Level FlightAware ADS-B
Tue 09:13:51 PM -21.7950 -46.3970 352° North 492 566 31,000 167 Level FlightAware ADS-B
Tue 09:14:31 PM -21.6860 -46.4150 351° North 495 570 31,200 917 Climbing FlightAware ADS-B
Tue 09:15:03 PM -21.6140 -46.4260 352° North 492 566 32,100 1,421 Climbing FlightAware ADS-B
Tue 09:15:47 PM -21.5140 -46.4430 351° North 484 557 33,000 675 Climbing FlightAware ADS-B
Tue 09:16:23 PM -21.4360 -46.4550 352° North 481 554 33,000  Level FlightAware ADS-B
Tue 09:16:55 PM -21.3630 -46.4670 351° North 482 555 33,000  Level FlightAware ADS-B
Tue 09:17:31 PM -21.2850 -46.4800 351° North 482 555 33,000  Level FlightAware ADS-B
Tue 09:18:07 PM -21.2030 -46.4940 351° North 484 557 33,000  Level FlightAware ADS-B
Tue 09:18:43 PM -21.1220 -46.5070 351° North 486 559 33,000  Level FlightAware ADS-B
Tue 09:19:17 PM -21.0530 -46.5180 352° North 487 560 33,000  Level FlightAware ADS-B
Tue 09:19:51 PM -20.9710 -46.5310 352° North 489 563 33,000  Level FlightAware ADS-B
Tue 09:20:27 PM -20.8910 -46.5440 351° North 489 563 33,000  Level FlightAware ADS-B
Tue 09:21:03 PM -20.8100 -46.5580 351° North 490 564 33,000  Level FlightAware ADS-B
Tue 09:21:39 PM -20.7280 -46.5710 352° North 491 565 33,000  Level FlightAware ADS-B
Tue 09:22:11 PM -20.6570 -46.5820 352° North 492 566 33,000  Level FlightAware ADS-B
Tue 09:22:49 PM -20.5700 -46.5960 351° North 492 566 33,000  Level FlightAware ADS-B
Tue 09:23:25 PM -20.4890 -46.6100 351° North 492 566 33,000  Level FlightAware ADS-B
Tue 09:23:57 PM -20.4180 -46.6230 350° North 493 567 33,000  Level FlightAware ADS-B
Tue 09:24:33 PM -20.3350 -46.6380 350° North 494 568 33,000  Level FlightAware ADS-B
Tue 09:25:05 PM -20.2640 -46.6510 350° North 495 570 33,000  Level FlightAware ADS-B
Tue 09:25:38 PM -20.1950 -46.6640 350° North 495 570 33,000  Level FlightAware ADS-B
Tue 09:26:24 PM -20.0880 -46.6830 351° North 494 568 33,000  Level FlightAware ADS-B
Tue 09:27:02 PM -20.0010 -46.6990 350° North 494 568 33,000  Level FlightAware ADS-B
Tue 09:27:34 PM -19.9280 -46.7120 350° North 495 570 33,000  Level FlightAware ADS-B
Tue 09:28:11 PM -19.8470 -46.7270 350° North 495 570 33,000  Level FlightAware ADS-B
Tue 09:28:46 PM -19.7660 -46.7410 351° North 495 570 33,000  Level FlightAware ADS-B
Tue 09:29:19 PM -19.6920 -46.7550 350° North 495 570 33,000  Level FlightAware ADS-B
Tue 09:29:54 PM -19.6130 -46.7690 351° North 495 570 33,000  Level FlightAware ADS-B
Tue 09:30:29 PM -19.5300 -46.7840 350° North 495 570 33,000  Level FlightAware ADS-B
Tue 09:31:04 PM -19.4540 -46.7980 350° North 495 570 33,000  Level FlightAware ADS-B
Tue 09:31:39 PM -19.3730 -46.8120 351° North 496 571 33,000  Level FlightAware ADS-B
Tue 09:32:14 PM -19.2990 -46.8250 351° North 497 572 33,000  Level FlightAware ADS-B
Tue 09:32:49 PM -19.2180 -46.8400 350° North 497 572 33,000  Level FlightAware ADS-B
Tue 09:33:24 PM -19.1330 -46.8530 352° North 498 573 33,000  Level FlightAware ADS-B
Tue 09:33:59 PM -19.0600 -46.8640 352° North 498 573 33,000  Level FlightAware ADS-B
Tue 09:34:34 PM -18.9730 -46.8780 351° North 497 572 33,000  Level FlightAware ADS-B
Tue 09:35:09 PM -18.8940 -46.8900 352° North 496 571 33,000  Level FlightAware ADS-B
Tue 09:35:41 PM -18.8190 -46.9020 351° North 494 568 33,000  Level FlightAware ADS-B
Tue 09:36:19 PM -18.7350 -46.9150 352° North 493 567 33,000  Level FlightAware ADS-B
Tue 09:36:54 PM -18.6550 -46.9260 353° North 492 566 33,000  Level FlightAware ADS-B
Tue 09:37:30 PM -18.5780 -46.9360 353° North 491 565 33,000  Level FlightAware ADS-B
Tue 09:38:04 PM -18.4970 -46.9460 353° North 490 564 33,000  Level FlightAware ADS-B
Tue 09:38:36 PM -18.4270 -46.9560 352° North 492 566 33,000  Level FlightAware ADS-B
Tue 09:39:11 PM -18.3500 -46.9660 353° North 493 567 33,000  Level FlightAware ADS-B
Tue 09:39:56 PM -18.2470 -46.9800 353° North 493 567 33,000  Level FlightAware ADS-B
Tue 09:40:31 PM -18.1690 -46.9900 353° North 491 565 33,000  Level FlightAware ADS-B
Tue 09:41:05 PM -18.0860 -47.0010 353° North 490 564 33,000  Level FlightAware ADS-B
Tue 09:41:45 PM -18.0220 -47.0100 352° North 493 567 33,000  Level FlightAware ADS-B
Tue 09:42:22 PM -17.9510 -47.0210 352° North 493 567 33,000  Level FlightAware ADS-B
Tue 09:43:01 PM -17.8280 -47.0530 346° North 481 554 33,000  Level FlightAware ADS-B
Tue 09:43:27 PM -17.7820 -47.0870 325° Northwest 473 544 33,000  Level FlightAware ADS-B
Tue 09:43:59 PM -17.7380 -47.1400 311° West 465 535 33,000  Level FlightAware ADS-B
Tue 09:44:36 PM -17.6900 -47.2060 307° West 465 535 33,000  Level FlightAware ADS-B
Tue 09:45:19 PM -17.6340 -47.2850 307° West 466 536 33,000  Level FlightAware ADS-B
Tue 09:45:54 PM -17.5930 -47.3390 309° West 466 536 33,000  Level FlightAware ADS-B
Tue 09:46:29 PM -17.5330 -47.4040 314° West 468 539 33,000  Level FlightAware ADS-B
Tue 09:47:02 PM -17.4920 -47.4520 312° West 467 537 33,000  Level FlightAware ADS-B
Tue 09:47:41 PM -17.4270 -47.5250 313° West 469 540 33,000  Level FlightAware ADS-B
Tue 09:48:27 PM -17.3670 -47.5940 312° West 469 540 33,000  Level FlightAware ADS-B
Tue 09:49:04 PM -17.3210 -47.6470 312° West 469 540 33,000  Level FlightAware ADS-B
Tue 09:49:41 PM -17.2760 -47.7010 311° West 469 540 33,000 833 Level FlightAware ADS-B
Tue 09:50:16 PM -17.1990 -47.7850 314° West 465 535 34,000 833 Climbing FlightAware ADS-B
Tue 09:50:53 PM -17.1520 -47.8390 312° West 465 535 34,000  Level FlightAware ADS-B
Tue 09:51:27 PM -17.1110 -47.8870 312° West 465 535 34,000  Level FlightAware ADS-B
Tue 09:52:03 PM -17.0670 -47.9380 312° West 465 535 34,000  Level FlightAware ADS-B
Tue 09:52:40 PM -16.9910 -48.0210 314° West 467 537 34,000  Level FlightAware ADS-B
Tue 09:53:16 PM -16.9360 -48.0820 313° West 464 534 34,000  Level FlightAware ADS-B
Tue 09:53:55 PM -16.8800 -48.1460 312° West 465 535 34,000  Level FlightAware ADS-B
Tue 09:54:30 PM -16.8280 -48.2050 313° West 466 536 34,000  Level FlightAware ADS-B
Tue 09:55:15 PM -16.7620 -48.2790 313° West 467 537 34,000  Level FlightAware ADS-B
Tue 09:55:50 PM -16.7110 -48.3360 313° West 467 537 34,000  Level FlightAware ADS-B
Tue 09:56:25 PM -16.6590 -48.3960 312° West 469 540 34,000  Level FlightAware ADS-B
Tue 09:57:00 PM -16.6080 -48.4530 313° West 467 537 34,000  Level FlightAware ADS-B
Tue 09:57:40 PM -16.5480 -48.5200 313° West 465 535 34,000  Level FlightAware ADS-B
Tue 09:58:15 PM -16.4990 -48.5750 313° West 465 535 34,000  Level FlightAware ADS-B
Tue 09:58:51 PM -16.4440 -48.6360 313° West 464 534 34,000  Level FlightAware ADS-B
Tue 09:59:26 PM -16.3970 -48.6900 312° West 465 535 34,000  Level FlightAware ADS-B
Tue 10:00:02 PM -16.3410 -48.7520 313° West 466 536 34,000  Level FlightAware ADS-B
Tue 10:00:37 PM -16.2890 -48.8100 313° West 467 537 34,000  Level FlightAware ADS-B
Tue 10:01:17 PM -16.2320 -48.8740 313° West 468 539 34,000  Level FlightAware ADS-B
Tue 10:01:53 PM -16.1790 -48.9330 313° West 469 540 34,000  Level FlightAware ADS-B
Tue 10:02:43 PM -16.1090 -49.0120 313° West 468 539 34,000  Level FlightAware ADS-B
Tue 10:03:13 PM -16.0620 -49.0630 314° West 466 536 34,000  Level FlightAware ADS-B
Tue 10:03:53 PM -15.9990 -49.1330 313° West 467 537 34,000  Level FlightAware ADS-B
Tue 10:04:23 PM -15.9560 -49.1820 312° West 468 539 34,000  Level FlightAware ADS-B
Tue 10:05:03 PM -15.9010 -49.2430 313° West 469 540 34,000  Level FlightAware ADS-B
Tue 10:05:33 PM -15.8540 -49.2950 313° West 466 536 34,000  Level FlightAware ADS-B
Tue 10:06:14 PM -15.8030 -49.3520 313° West 466 536 34,000  Level FlightAware ADS-B
Tue 10:06:48 PM -15.7610 -49.3990 313° West 466 536 34,000  Level FlightAware ADS-B
Tue 10:07:25 PM -15.7140 -49.4510 313° West 466 536 34,000  Level FlightAware ADS-B
Tue 10:07:53 PM -15.6470 -49.5250 313° West 471 542 34,000  Level FlightAware ADS-B
Tue 10:08:33 PM -15.5960 -49.5810 313° West 471 542 34,000  Level FlightAware ADS-B
Tue 10:09:09 PM -15.5510 -49.6320 312° West 471 542 34,000  Level FlightAware ADS-B
Tue 10:09:45 PM -15.5050 -49.6830 313° West 471 542 34,000  Level FlightAware ADS-B
Tue 10:10:37 PM -15.4090 -49.7880 313° West 471 542 34,000  Level FlightAware ADS-B
Tue 10:11:21 PM -15.3540 -49.8500 313° West 471 542 34,000  Level FlightAware ADS-B
Tue 10:11:57 PM -15.3080 -49.9000 314° West 471 542 34,000  Level FlightAware ADS-B
Tue 10:12:34 PM -15.2620 -49.9520 313° West 471 542 34,000  Level FlightAware ADS-B
Tue 10:13:10 PM -15.2160 -50.0030 313° West 471 542 34,000  Level FlightAware ADS-B
Tue 10:13:46 PM -15.1710 -50.0530 313° West 471 542 34,000  Level FlightAware ADS-B
Tue 10:14:20 PM -15.1280 -50.1010 313° West 471 542 34,000  Level FlightAware ADS-B
Tue 10:14:57 PM -15.0810 -50.1530 313° West 471 542 34,000  Level FlightAware ADS-B
Tue 10:15:33 PM -15.0350 -50.2030 314° West 471 542 34,000  Level FlightAware ADS-B
Tue 10:16:09 PM -14.9900 -50.2540 312° West 471 542 34,000  Level FlightAware ADS-B
Tue 10:16:45 PM -14.9440 -50.3040 314° West 471 542 34,000  Level FlightAware ADS-B
Tue 10:17:21 PM -14.8990 -50.3550 312° West 471 542 34,000  Level FlightAware ADS-B
Tue 10:17:57 PM -14.8540 -50.4050 313° West 471 542 34,000  Level FlightAware ADS-B
Tue 10:18:33 PM -14.8080 -50.4560 313° West 471 542 34,000  Level FlightAware ADS-B
Tue 10:19:09 PM -14.7630 -50.5060 313° West 471 542 34,000  Level FlightAware ADS-B
Tue 10:19:45 PM -14.7170 -50.5560 314° West 471 542 34,000 Level FlightAware ADS-B
Tue 10:22:00 PM -14.5048 -50.7545 318° Northwest  Level Estimated
Tue 10:23:00 PM -14.4104 -50.8425 318° Northwest  Level Estimated
Tue 10:24:00 PM -14.3161 -50.9305 318° Northwest  Level Estimated
Tue 10:25:00 PM -14.2216 -51.0185 318° Northwest  Level Estimated
Tue 10:26:00 PM -14.1272 -51.1063 318° Northwest  Level Estimated
Tue 10:27:00 PM -14.0327 -51.1941 318° Northwest  Level Estimated
Tue 10:28:00 PM -13.9382 -51.2818 318° Northwest  Level Estimated
Tue 10:29:00 PM -13.8436 -51.3694 318° Northwest  Level Estimated
Tue 10:30:00 PM -13.7490 -51.4570 318° Northwest  Level Estimated
Tue 10:31:00 PM -13.6544 -51.5445 318° Northwest  Level Estimated
Tue 10:32:00 PM -13.5598 -51.6320 318° Northwest  Level Estimated
Tue 10:33:00 PM -13.4651 -51.7193 318° Northwest  Level Estimated
Tue 10:34:00 PM -13.3704 -51.8066 318° Northwest  Level Estimated
Tue 10:35:00 PM -13.2757 -51.8938 318° Northwest  Level Estimated
Tue 10:36:00 PM -13.1809 -51.9810 318° Northwest  Level Estimated
Tue 10:37:00 PM -13.0861 -52.0681 318° Northwest  Level Estimated
Tue 10:38:00 PM -12.9913 -52.1551 318° Northwest  Level Estimated
Tue 10:39:00 PM -12.8965 -52.2420 318° Northwest  Level Estimated
Tue 10:40:00 PM -12.8016 -52.3289 318° Northwest  Level Estimated
Tue 10:41:00 PM -12.7067 -52.4157 318° Northwest  Level Estimated
Tue 10:42:00 PM -12.6117 -52.5025 318° Northwest  Level Estimated
Tue 10:43:00 PM -12.5168 -52.5892 318° Northwest  Level Estimated
Tue 10:44:00 PM -12.4218 -52.6758 318° Northwest  Level Estimated
Tue 10:45:00 PM -12.3268 -52.7624 318° Northwest  Level Estimated
Tue 10:46:00 PM -12.2317 -52.8489 318° Northwest  Level Estimated
Tue 10:47:00 PM -12.1366 -52.9353 318° Northwest  Level Estimated
Tue 10:48:00 PM -12.0415 -53.0217 318° Northwest  Level Estimated
Tue 10:49:00 PM -11.9464 -53.1080 318° Northwest  Level Estimated
Tue 10:50:00 PM -11.8513 -53.1943 318° Northwest  Level Estimated
Tue 10:51:00 PM -11.7561 -53.2805 318° Northwest  Level Estimated
Tue 10:52:00 PM -11.6609 -53.3666 318° Northwest  Level Estimated
Tue 10:53:00 PM -11.5656 -53.4527 318° Northwest  Level Estimated
Tue 10:54:00 PM -11.4704 -53.5387 318° Northwest  Level Estimated
Tue 10:55:00 PM -11.3751 -53.6247 319° Northwest  Level Estimated
Tue 10:56:00 PM -11.2798 -53.7106 319° Northwest  Level Estimated
Tue 10:57:00 PM -11.1845 -53.7964 319° Northwest  Level Estimated
Tue 10:58:00 PM -11.0891 -53.8822 319° Northwest  Level Estimated
Tue 10:59:00 PM -10.9937 -53.9679 319° Northwest  Level Estimated
Tue 11:00:00 PM -10.8983 -54.0536 319° Northwest  Level Estimated
Tue 11:01:00 PM -10.8029 -54.1392 319° Northwest  Level Estimated
Tue 11:02:00 PM -10.7074 -54.2248 319° Northwest  Level Estimated
Tue 11:03:00 PM -10.6120 -54.3103 319° Northwest  Level Estimated
Tue 11:04:00 PM -10.5165 -54.3958 319° Northwest  Level Estimated
Tue 11:05:00 PM -10.4209 -54.4812 319° Northwest  Level Estimated
Tue 11:06:00 PM -10.3244 -54.5674 319° Northwest  Level Estimated
Tue 11:07:00 PM -10.2279 -54.6536 319° Northwest  Level Estimated
Tue 11:08:00 PM -10.1313 -54.7397 319° Northwest  Level Estimated
Tue 11:09:00 PM -10.0347 -54.8258 319° Northwest  Level Estimated
Tue 11:10:00 PM -9.9381 -54.9118 319° Northwest  Level Estimated
Tue 11:11:00 PM -9.8414 -54.9978 319° Northwest  Level Estimated
Tue 11:12:00 PM -9.7448 -55.0838 319° Northwest  Level Estimated
Tue 11:13:00 PM -9.6481 -55.1696 319° Northwest  Level Estimated
Tue 11:14:00 PM -9.5514 -55.2555 319° Northwest  Level Estimated
Tue 11:15:00 PM -9.4546 -55.3413 319° Northwest  Level Estimated
Tue 11:16:00 PM -9.3579 -55.4270 319° Northwest  Level Estimated
Tue 11:17:00 PM -9.2611 -55.5127 319° Northwest  Level Estimated
Tue 11:18:00 PM -9.1643 -55.5983 319° Northwest  Level Estimated
Tue 11:19:00 PM -9.0675 -55.6839 319° Northwest  Level Estimated
Tue 11:20:00 PM -8.9707 -55.7694 319° Northwest  Level Estimated
Tue 11:21:00 PM -8.8738 -55.8549 319° Northwest  Level Estimated
Tue 11:22:00 PM -8.7770 -55.9404 319° Northwest  Level Estimated
Tue 11:23:00 PM -8.6801 -56.0258 319° Northwest  Level Estimated
Tue 11:24:00 PM -8.5832 -56.1111 319° Northwest  Level Estimated
Tue 11:25:00 PM -8.4863 -56.1965 319° Northwest  Level Estimated
Tue 11:26:00 PM -8.3893 -56.2817 319° Northwest  Level Estimated
Tue 11:27:00 PM -8.2924 -56.3670 319° Northwest  Level Estimated
Tue 11:28:00 PM -8.1954 -56.4522 319° Northwest  Level Estimated
Tue 11:29:00 PM -8.0984 -56.5373 319° Northwest  Level Estimated
Tue 11:30:00 PM -8.0014 -56.6224 319° Northwest  Level Estimated
Tue 11:31:00 PM -7.9042 -56.7076 319° Northwest  Level Estimated
Tue 11:32:00 PM -7.8070 -56.7928 319° Northwest  Level Estimated
Tue 11:33:00 PM -7.7097 -56.8779 319° Northwest  Level Estimated
Tue 11:34:00 PM -7.6125 -56.9631 319° Northwest  Level Estimated
Tue 11:35:00 PM -7.5152 -57.0481 319° Northwest  Level Estimated
Tue 11:36:00 PM -7.4179 -57.1331 319° Northwest  Level Estimated
Tue 11:37:00 PM -7.3206 -57.2181 319° Northwest  Level Estimated
Tue 11:38:00 PM -7.2233 -57.3031 319° Northwest  Level Estimated
Tue 11:39:00 PM -7.1260 -57.3880 319° Northwest  Level Estimated
Tue 11:40:00 PM -7.0286 -57.4728 319° Northwest  Level Estimated
Tue 11:41:00 PM -6.9313 -57.5577 319° Northwest  Level Estimated
Tue 11:42:00 PM -6.8339 -57.6425 319° Northwest  Level Estimated
Tue 11:43:00 PM -6.7365 -57.7272 319° Northwest  Level Estimated
Tue 11:44:00 PM -6.6391 -57.8120 319° Northwest  Level Estimated
Tue 11:45:00 PM -6.5417 -57.8967 319° Northwest  Level Estimated
Tue 11:46:00 PM -6.4442 -57.9813 319° Northwest  Level Estimated
Tue 11:47:00 PM -6.3468 -58.0660 319° Northwest  Level Estimated
Tue 11:48:00 PM -6.2493 -58.1506 319° Northwest  Level Estimated
Tue 11:49:00 PM -6.1520 -58.2350 319° Northwest  Level Estimated
Tue 11:50:00 PM -6.0547 -58.3194 319° Northwest  Level Estimated
Tue 11:51:00 PM -5.9574 -58.4037 319° Northwest  Level Estimated
Tue 11:52:00 PM -5.8600 -58.4881 319° Northwest  Level Estimated
Tue 11:53:00 PM -5.7627 -58.5724 319° Northwest  Level Estimated
Tue 11:54:00 PM -5.6653 -58.6567 319° Northwest  Level Estimated
Tue 11:55:00 PM -5.5679 -58.7409 319° Northwest  Level Estimated
Tue 11:56:00 PM -5.4705 -58.8251 319° Northwest  Level Estimated
Tue 11:57:00 PM -5.3731 -58.9093 319° Northwest  Level Estimated
Tue 11:58:00 PM -5.2757 -58.9935 319° Northwest  Level Estimated
Tue 11:59:00 PM -5.1782 -59.0776 319° Northwest  Level Estimated
Wed 12:00:00 AM -5.0808 -59.1617 319° Northwest  Level Estimated
Wed 12:01:00 AM -4.9833 -59.2458 319° Northwest  Level Estimated
Wed 12:02:00 AM -4.8859 -59.3299 319° Northwest  Level Estimated
Wed 12:03:00 AM -4.7884 -59.4139 319° Northwest  Level Estimated
Wed 12:04:00 AM -4.6909 -59.4979 319° Northwest  Level Estimated
Wed 12:05:00 AM -4.5935 -59.5819 319° Northwest  Level Estimated
Wed 12:06:00 AM -4.4960 -59.6659 319° Northwest  Level Estimated
Wed 12:07:00 AM -4.3984 -59.7498 319° Northwest  Level Estimated
Wed 12:08:00 AM -4.3009 -59.8337 319° Northwest  Level Estimated
Wed 12:09:00 AM -4.2034 -59.9176 319° Northwest  Level Estimated
Wed 12:10:00 AM -4.1059 -60.0015 319° Northwest  Level Estimated
Wed 12:11:00 AM -4.0083 -60.0854 319° Northwest  Level Estimated
Wed 12:12:00 AM -3.9107 -60.1692 319° Northwest  Level Estimated
Wed 12:13:00 AM -3.8132 -60.2530 319° Northwest  Level Estimated
Wed 12:14:00 AM -3.7156 -60.3368 319° Northwest  Level Estimated
Wed 12:15:00 AM -3.6180 -60.4206 319° Northwest  Level Estimated
Wed 12:16:00 AM -3.5204 -60.5044 319° Northwest  Level Estimated
Wed 12:17:00 AM -3.4228 -60.5881 319° Northwest  Level Estimated
Wed 12:18:00 AM -3.3252 -60.6719 319° Northwest  Level Estimated
Wed 12:19:00 AM -3.2276 -60.7556 319° Northwest  Level Estimated
Wed 12:20:00 AM -3.1300 -60.8393 319° Northwest  Level Estimated
Wed 12:21:00 AM -3.0324 -60.9230 319° Northwest  Level Estimated
Wed 12:22:00 AM -2.9347 -61.0066 319° Northwest  Level Estimated
Wed 12:23:00 AM -2.8371 -61.0903 319° Northwest  Level Estimated
Wed 12:24:00 AM -2.7394 -61.1739 319° Northwest  Level Estimated
Wed 12:25:00 AM -2.6418 -61.2575 319° Northwest  Level Estimated
Wed 12:26:00 AM -2.5441 -61.3411 319° Northwest  Level Estimated
Wed 12:27:00 AM -2.4465 -61.4247 319° Northwest  Level Estimated
Wed 12:28:00 AM -2.3488 -61.5083 319° Northwest  Level Estimated
Wed 12:29:00 AM -2.2511 -61.5919 319° Northwest  Level Estimated
Wed 12:30:00 AM -2.1534 -61.6755 319° Northwest  Level Estimated
Wed 12:31:00 AM -2.0558 -61.7590 319° Northwest  Level Estimated
Wed 12:32:00 AM -1.9581 -61.8425 319° Northwest  Level Estimated
Wed 12:33:00 AM -1.8604 -61.9261 319° Northwest  Level Estimated
Wed 12:34:00 AM -1.7627 -62.0096 319° Northwest  Level Estimated
Wed 12:35:00 AM -1.6650 -62.0931 319° Northwest  Level Estimated
Wed 12:36:00 AM -1.5673 -62.1766 319° Northwest  Level Estimated
Wed 12:37:00 AM -1.4696 -62.2601 319° Northwest  Level Estimated
Wed 12:38:00 AM -1.3719 -62.3436 319° Northwest  Level Estimated
Wed 12:39:00 AM -1.2742 -62.4271 319° Northwest  Level Estimated
Wed 12:40:00 AM -1.1765 -62.5106 319° Northwest  Level Estimated
Wed 12:41:00 AM -1.0787 -62.5940 319° Northwest  Level Estimated
Wed 12:42:00 AM -0.9810 -62.6775 320° Northwest  Level Estimated
Wed 12:43:00 AM -0.8833 -62.7610 320° Northwest  Level Estimated
Wed 12:44:00 AM -0.7856 -62.8444 320° Northwest  Level Estimated
Wed 12:45:00 AM -0.6879 -62.9279 320° Northwest  Level Estimated
Wed 12:46:00 AM -0.5901 -63.0113 320° Northwest  Level Estimated
Wed 12:47:00 AM -0.4924 -63.0948 320° Northwest  Level Estimated
Wed 12:48:00 AM -0.3947 -63.1782 320° Northwest  Level Estimated
Wed 12:49:00 AM -0.2969 -63.2617 320° Northwest  Level Estimated
Wed 12:50:00 AM -0.1992 -63.3451 320° Northwest  Level Estimated
Wed 12:51:00 AM -0.1015 -63.4286 320° Northwest  Level Estimated
Wed 12:52:00 AM -0.0037 -63.5120 320° Northwest  Level Estimated
Wed 12:53:00 AM 0.0940 -63.5954 320° Northwest  Level Estimated
Wed 12:54:00 AM 0.1917 -63.6789 320° Northwest  Level Estimated
Wed 12:55:00 AM 0.2894 -63.7623 320° Northwest  Level Estimated
Wed 12:56:00 AM 0.3872 -63.8457 320° Northwest  Level Estimated
Wed 12:57:00 AM 0.4849 -63.9292 320° Northwest  Level Estimated
Wed 12:58:00 AM 0.5825 -64.0125 320° Northwest  Level Estimated
Wed 12:59:00 AM 0.6800 -64.0958 320° Northwest  Level Estimated
Wed 01:00:00 AM 0.7776 -64.1791 320° Northwest  Level Estimated
Wed 01:01:00 AM 0.8751 -64.2624 320° Northwest  Level Estimated
Wed 01:02:00 AM 0.9727 -64.3457 320° Northwest  Level Estimated
Wed 01:03:00 AM 1.0702 -64.4291 320° Northwest  Level Estimated
Wed 01:04:00 AM 1.1678 -64.5124 320° Northwest  Level Estimated
Wed 01:05:00 AM 1.2653 -64.5957 319° Northwest  Level Estimated
Wed 01:06:00 AM 1.3629 -64.6791 319° Northwest  Level Estimated
Wed 01:07:00 AM 1.4604 -64.7624 319° Northwest  Level Estimated
Wed 01:08:00 AM 1.5580 -64.8458 319° Northwest  Level Estimated
Wed 01:09:00 AM 1.6555 -64.9291 319° Northwest  Level Estimated
Wed 01:10:00 AM 1.7530 -65.0125 319° Northwest  Level Estimated
Wed 01:11:00 AM 1.8505 -65.0959 319° Northwest  Level Estimated
Wed 01:12:00 AM 1.9481 -65.1793 319° Northwest  Level Estimated
Wed 01:13:00 AM 2.0456 -65.2627 319° Northwest  Level Estimated
Wed 01:14:00 AM 2.1431 -65.3461 319° Northwest  Level Estimated
Wed 01:15:00 AM 2.2406 -65.4295 319° Northwest  Level Estimated
Wed 01:16:00 AM 2.3381 -65.5129 319° Northwest  Level Estimated
Wed 01:17:00 AM 2.4356 -65.5964 319° Northwest  Level Estimated
Wed 01:18:00 AM 2.5331 -65.6798 319° Northwest  Level Estimated
Wed 01:19:00 AM 2.6306 -65.7633 319° Northwest  Level Estimated
Wed 01:20:00 AM 2.7281 -65.8468 319° Northwest  Level Estimated
Wed 01:21:00 AM 2.8256 -65.9303 319° Northwest  Level Estimated
Wed 01:22:00 AM 2.9230 -66.0138 319° Northwest  Level Estimated
Wed 01:23:00 AM 3.0205 -66.0973 319° Northwest  Level Estimated
Wed 01:24:00 AM 3.1180 -66.1808 319° Northwest  Level Estimated
Wed 01:25:00 AM 3.2154 -66.2644 319° Northwest  Level Estimated
Wed 01:26:00 AM 3.3129 -66.3479 319° Northwest  Level Estimated
Wed 01:27:00 AM 3.4103 -66.4315 319° Northwest  Level Estimated
Wed 01:28:00 AM 3.5079 -66.5153 319° Northwest  Level Estimated
Wed 01:29:00 AM 3.6055 -66.5990 319° Northwest  Level Estimated
Wed 01:30:00 AM 3.7031 -66.6828 319° Northwest  Level Estimated
Wed 01:31:00 AM 3.8006 -66.7666 319° Northwest  Level Estimated
Wed 01:32:00 AM 3.8982 -66.8504 319° Northwest  Level Estimated
Wed 01:33:00 AM 3.9958 -66.9343 319° Northwest  Level Estimated
Wed 01:34:00 AM 4.0933 -67.0181 319° Northwest  Level Estimated
Wed 01:35:00 AM 4.1909 -67.1020 319° Northwest  Level Estimated
Wed 01:36:00 AM 4.2884 -67.1859 319° Northwest  Level Estimated
Wed 01:37:00 AM 4.3859 -67.2698 319° Northwest  Level Estimated
Wed 01:38:00 AM 4.4834 -67.3538 319° Northwest  Level Estimated
Wed 01:39:00 AM 4.5809 -67.4377 319° Northwest  Level Estimated
Wed 01:40:00 AM 4.6785 -67.5217 319° Northwest  Level Estimated
Wed 01:41:00 AM 4.7759 -67.6057 319° Northwest  Level Estimated
Wed 01:42:00 AM 4.8734 -67.6898 319° Northwest  Level Estimated
Wed 01:43:00 AM 4.9707 -67.7737 319° Northwest  Level Estimated
Wed 01:44:00 AM 5.0680 -67.8576 319° Northwest  Level Estimated
Wed 01:45:00 AM 5.1653 -67.9416 319° Northwest  Level Estimated
Wed 01:46:00 AM 5.2626 -68.0256 319° Northwest  Level Estimated
Wed 01:47:00 AM 5.3598 -68.1096 319° Northwest  Level Estimated
Wed 01:48:00 AM 5.4570 -68.1936 319° Northwest  Level Estimated
Wed 01:49:00 AM 5.5543 -68.2777 319° Northwest  Level Estimated
Wed 01:50:00 AM 5.6515 -68.3618 319° Northwest  Level Estimated
Wed 01:51:00 AM 5.7487 -68.4459 319° Northwest  Level Estimated
Wed 01:52:00 AM 5.8459 -68.5301 319° Northwest  Level Estimated
Wed 01:53:00 AM 5.9431 -68.6143 319° Northwest  Level Estimated
Wed 01:54:00 AM 6.0403 -68.6985 319° Northwest  Level Estimated
Wed 01:55:00 AM 6.1374 -68.7827 319° Northwest  Level Estimated
Wed 01:56:00 AM 6.2346 -68.8670 319° Northwest  Level Estimated
Wed 01:56:13 AM 3.8710 -73.1630 319° Northwest 492 566 36,000  Level FlightAware ADS-B
Wed 01:56:47 AM 3.9230 -73.2220 311° West 494 568 36,000  Level FlightAware ADS-B
Wed 01:57:22 AM 3.9760 -73.2810 312° West 493 567 36,000  Level FlightAware ADS-B
Wed 01:57:59 AM 4.0330 -73.3440 312° West 492 566 36,000  Level FlightAware ADS-B
Wed 01:58:34 AM 4.0860 -73.4040 312° West 492 566 36,000  Level FlightAware ADS-B
Wed 01:59:06 AM 4.1330 -73.4600 310° West 493 567 36,000  Level FlightAware ADS-B
Wed 01:59:42 AM 4.1850 -73.5250 309° West 493 567 36,000  Level FlightAware ADS-B
Wed 02:00:19 AM 4.2390 -73.5900 310° West 495 570 36,000  Level FlightAware ADS-B
Wed 02:00:51 AM 4.2860 -73.6470 310° West 494 568 36,000  Level FlightAware ADS-B
Wed 02:01:27 AM 4.3390 -73.7110 310° West 494 568 36,000  Level FlightAware ADS-B
Wed 02:02:01 AM 4.3880 -73.7700 310° West 495 570 36,000  Level FlightAware ADS-B
Wed 02:02:39 AM 4.4440 -73.8370 310° West 496 571 36,000  Level FlightAware ADS-B
Wed 02:03:11 AM 4.4910 -73.8940 310° West 496 571 36,000  Level FlightAware ADS-B
Wed 02:03:47 AM 4.5450 -73.9580 310° West 497 572 36,000  Level FlightAware ADS-B
Wed 02:04:23 AM 4.5970 -74.0210 310° West 497 572 36,000  Level FlightAware ADS-B
Wed 02:04:59 AM 4.6500 -74.0850 310° West 497 572 36,000  Level FlightAware ADS-B
Wed 02:05:32 AM 4.6980 -74.1430 310° West 498 573 36,000  Level FlightAware ADS-B
Wed 02:06:08 AM 4.7500 -74.2060 310° West 497 572 36,000  Level FlightAware ADS-B
Wed 02:06:43 AM 4.8040 -74.2720 309° West 498 573 36,000  Level FlightAware ADS-B
Wed 02:07:17 AM 4.8510 -74.3330 308° West 500 575 36,000  Level FlightAware ADS-B
Wed 02:07:53 AM 4.8950 -74.4030 302° West 501 577 36,000  Level FlightAware ADS-B
Wed 02:08:29 AM 4.9390 -74.4760 301° West 500 575 36,000  Level FlightAware ADS-B
Wed 02:09:01 AM 4.9760 -74.5390 301° West 500 575 36,000  Level FlightAware ADS-B
Wed 02:09:39 AM 5.0210 -74.6140 301° West 500 575 36,000  Level FlightAware ADS-B
Wed 02:10:15 AM 5.0640 -74.6850 301° West 501 577 36,000  Level FlightAware ADS-B
Wed 02:10:47 AM 5.1030 -74.7500 301° West 502 578 36,000  Level FlightAware ADS-B
Wed 02:11:21 AM 5.1440 -74.8190 301° West 503 579 36,000  Level FlightAware ADS-B
Wed 02:11:58 AM 5.1800 -74.8780 301° West 504 580 36,000  Level FlightAware ADS-B
Wed 02:12:19 AM 5.2220 -74.9290 310° West 500 575 36,000  Level FlightAware ADS-B
Wed 02:12:47 AM 5.2720 -74.9650 324° Northwest 494 568 36,000  Level FlightAware ADS-B
Wed 02:13:23 AM 5.3420 -75.0110 327° Northwest 494 568 36,000  Level FlightAware ADS-B
Wed 02:13:59 AM 5.4100 -75.0540 328° Northwest 494 568 36,000  Level FlightAware ADS-B
Wed 02:14:31 AM 5.4740 -75.0940 328° Northwest 495 570 36,000  Level FlightAware ADS-B
Wed 02:15:05 AM 5.5410 -75.1370 327° Northwest 496 571 36,000  Level FlightAware ADS-B
Wed 02:15:43 AM 5.6140 -75.1840 327° Northwest 497 572 36,000  Level FlightAware ADS-B
Wed 02:16:13 AM 5.6720 -75.2210 328° Northwest 497 572 36,000  Level FlightAware ADS-B
Wed 02:16:53 AM 5.7380 -75.2640 327° Northwest 497 572 36,000  Level FlightAware ADS-B
Wed 02:17:30 AM 5.7980 -75.3030 327° Northwest 497 572 36,000  Level FlightAware ADS-B
Wed 02:18:06 AM 5.8570 -75.3420 327° Northwest 497 572 36,000  Level FlightAware ADS-B
Wed 02:18:42 AM 5.9160 -75.3810 327° Northwest 497 572 36,000  Level FlightAware ADS-B
Wed 02:19:04 AM 6.0000 -75.4410 325° Northwest 501 577 36,000  Level FlightAware ADS-B
Wed 02:19:42 AM 6.0550 -75.4990 314° West 504 580 36,000  Level FlightAware ADS-B
Wed 02:20:19 AM 6.1060 -75.5520 314° West 504 580 36,000  Level FlightAware ADS-B
Wed 02:20:55 AM 6.1560 -75.6040 314° West 504 580 36,000  Level FlightAware ADS-B
Wed 02:21:32 AM 6.2070 -75.6570 314° West 504 580 36,000  Level FlightAware ADS-B
Wed 02:22:08 AM 6.2560 -75.7090 313° West 504 580 36,000  Level FlightAware ADS-B
Wed 02:22:44 AM 6.3060 -75.7600 315° West 504 580 36,000  Level FlightAware ADS-B
Wed 02:23:19 AM 6.3960 -75.8840 306° West 500 575 36,000  Level FlightAware ADS-B
Wed 02:23:49 AM 6.4430 -75.9370 312° West 499 574 36,000  Level FlightAware ADS-B
Wed 02:24:24 AM 6.4970 -75.9970 312° West 499 574 36,000  Level FlightAware ADS-B
Wed 02:24:59 AM 6.5510 -76.0580 312° West 500 575 36,000  Level FlightAware ADS-B
Wed 02:25:47 AM 6.6130 -76.1270 312° West 500 575 36,000  Level FlightAware ADS-B
Wed 02:26:23 AM 6.6600 -76.1800 312° West 500 575 36,000  Level FlightAware ADS-B
Wed 02:26:59 AM 6.7370 -76.2660 312° West 502 578 36,000  Level FlightAware ADS-B
Wed 02:27:34 AM 6.7910 -76.3270 312° West 503 579 36,000  Level FlightAware ADS-B
Wed 02:28:09 AM 6.8450 -76.3880 312° West 502 578 36,000  Level FlightAware ADS-B
Wed 02:28:45 AM 6.8990 -76.4480 312° West 503 579 36,000  Level FlightAware ADS-B
Wed 02:29:20 AM 6.9540 -76.5110 311° West 502 578 36,000  Level FlightAware ADS-B
Wed 02:29:54 AM 7.0090 -76.5720 312° West 504 580 36,000  Level FlightAware ADS-B
Wed 02:30:29 AM 7.0630 -76.6330 312° West 504 580 36,000  Level FlightAware ADS-B
Wed 02:31:04 AM 7.1170 -76.6940 312° West 503 579 36,000  Level FlightAware ADS-B
Wed 02:31:39 AM 7.1710 -76.7550 312° West 502 578 36,000  Level FlightAware ADS-B
Wed 02:32:14 AM 7.2240 -76.8140 312° West 502 578 36,000  Level FlightAware ADS-B
Wed 02:32:49 AM 7.2800 -76.8770 312° West 500 575 36,000  Level FlightAware ADS-B
Wed 02:33:25 AM 7.3340 -76.9380 312° West 499 574 36,000  Level FlightAware ADS-B
Wed 02:33:59 AM 7.3880 -76.9990 312° West 499 574 36,000  Level FlightAware ADS-B
Wed 02:34:34 AM 7.4420 -77.0600 312° West 498 573 36,000  Level FlightAware ADS-B
Wed 02:35:09 AM 7.4950 -77.1210 311° West 499 574 36,000  Level FlightAware ADS-B
Wed 02:35:44 AM 7.5480 -77.1810 312° West 499 574 36,000  Level FlightAware ADS-B
Wed 02:36:19 AM 7.6010 -77.2400 312° West 501 577 36,000  Level FlightAware ADS-B
Wed 02:36:54 AM 7.6560 -77.3030 311° West 502 578 36,000  Level FlightAware ADS-B
Wed 02:37:29 AM 7.7110 -77.3640 312° West 501 577 36,000  Level FlightAware ADS-B
Wed 02:38:04 AM 7.7640 -77.4240 312° West 500 575 36,000  Level FlightAware ADS-B
Wed 02:38:39 AM 7.8190 -77.4860 312° West 498 573 36,000  Level FlightAware ADS-B
Wed 02:39:15 AM 7.8740 -77.5460 313° West 499 574 36,000  Level FlightAware ADS-B
Wed 02:39:49 AM 7.9280 -77.6060 312° West 499 574 36,000  Level FlightAware ADS-B
Wed 02:40:24 AM 7.9820 -77.6660 312° West 499 574 36,000  Level FlightAware ADS-B
Wed 02:40:59 AM 8.0370 -77.7270 312° West 499 574 36,000  Level FlightAware ADS-B
Wed 02:41:34 AM 8.0900 -77.7860 312° West 498 573 36,000  Level FlightAware ADS-B
Wed 02:42:10 AM 8.1450 -77.8470 312° West 498 573 36,000  Level FlightAware ADS-B
Wed 02:42:45 AM 8.2000 -77.9090 312° West 498 573 36,000  Level FlightAware ADS-B
Wed 02:43:20 AM 8.2540 -77.9690 312° West 498 573 36,000  Level FlightAware ADS-B
Wed 02:43:54 AM 8.3080 -78.0290 312° West 499 574 36,000  Level FlightAware ADS-B
Wed 02:44:30 AM 8.3610 -78.0880 312° West 501 577 36,000  Level FlightAware ADS-B
Wed 02:45:04 AM 8.4180 -78.1470 314° West 499 574 36,000  Level FlightAware ADS-B
Wed 02:45:39 AM 8.4800 -78.2010 319° Northwest 498 573 36,000  Level FlightAware ADS-B
Wed 02:46:14 AM 8.5420 -78.2530 320° Northwest 497 572 36,000  Level FlightAware ADS-B
Wed 02:46:50 AM 8.6030 -78.3040 320° Northwest 497 572 36,000  Level FlightAware ADS-B
Wed 02:47:34 AM 8.6840 -78.3720 320° Northwest 498 573 36,000  Level FlightAware ADS-B
Wed 02:48:04 AM 8.7370 -78.4160 321° Northwest 498 573 36,000  Level FlightAware ADS-B
Wed 02:48:44 AM 8.8080 -78.4760 320° Northwest 498 573 36,000  Level FlightAware ADS-B
Wed 02:49:24 AM 8.8770 -78.5350 320° Northwest 498 573 36,000  Level FlightAware ADS-B
Wed 02:49:59 AM 8.9400 -78.5880 320° Northwest 500 575 36,000  Level FlightAware ADS-B
Wed 02:50:35 AM 9.0020 -78.6400 320° Northwest 499 574 36,000  Level FlightAware ADS-B
Wed 02:51:09 AM 9.0650 -78.6930 320° Northwest 500 575 36,000  Level FlightAware ADS-B
Wed 02:51:44 AM 9.1270 -78.7450 320° Northwest 500 575 36,000  Level FlightAware ADS-B
Wed 02:52:24 AM 9.1990 -78.8050 321° Northwest 500 575 36,000  Level FlightAware ADS-B
Wed 02:53:01 AM 9.2620 -78.8590 320° Northwest 499 574 36,000  Level FlightAware ADS-B
Wed 02:53:36 AM 9.3260 -78.9130 320° Northwest 492 566 36,000  Level FlightAware ADS-B
Wed 02:54:16 AM 9.3960 -78.9720 320° Northwest 492 566 36,000  Level FlightAware ADS-B
Wed 02:54:56 AM 9.4670 -79.0320 320° Northwest 491 565 36,000  Level FlightAware ADS-B
Wed 02:55:26 AM 9.5190 -79.0760 320° Northwest 491 565 36,000  Level FlightAware ADS-B
Wed 02:56:01 AM 9.5820 -79.1300 320° Northwest 491 565 36,000  Level FlightAware ADS-B
Wed 02:56:41 AM 9.6520 -79.1890 320° Northwest 491 565 36,000  Level FlightAware ADS-B
Wed 02:57:11 AM 9.7070 -79.2350 320° Northwest 491 565 36,000  Level FlightAware ADS-B
Wed 02:57:46 AM 9.7680 -79.2870 320° Northwest 490 564 36,000  Level FlightAware ADS-B
Wed 02:58:22 AM 9.8320 -79.3410 320° Northwest 491 565 36,000  Level FlightAware ADS-B
Wed 02:58:57 AM 9.8940 -79.3940 320° Northwest 489 563 36,000  Level FlightAware ADS-B
Wed 02:59:32 AM 9.9550 -79.4450 321° Northwest 490 564 36,000  Level FlightAware ADS-B
Wed 03:00:23 AM 10.0370 -79.5170 319° Northwest 490 564 36,000  Level FlightAware ADS-B
Wed 03:00:58 AM 10.1040 -79.5720 321° Northwest 493 567 36,000  Level FlightAware ADS-B
Wed 03:01:34 AM 10.1650 -79.6240 320° Northwest 493 567 36,000  Level FlightAware ADS-B
Wed 03:02:04 AM 10.2240 -79.6740 320° Northwest 493 567 36,000  Level FlightAware ADS-B
Wed 03:02:39 AM 10.2870 -79.7280 320° Northwest 493 567 36,000  Level FlightAware ADS-B
Wed 03:03:29 AM 10.3660 -79.7950 320° Northwest 493 567 36,000  Level FlightAware ADS-B
Wed 03:04:05 AM 10.4360 -79.8550 320° Northwest 491 565 36,000  Level FlightAware ADS-B
Wed 03:04:40 AM 10.5010 -79.9100 320° Northwest 490 564 36,000  Level FlightAware ADS-B
Wed 03:05:15 AM 10.5600 -79.9610 320° Northwest 489 563 36,000  Level FlightAware ADS-B
Wed 03:05:50 AM 10.6230 -80.0140 320° Northwest 489 563 36,000  Level FlightAware ADS-B
Wed 03:06:27 AM 10.6830 -80.0660 320° Northwest 490 564 36,000  Level FlightAware ADS-B
Wed 03:07:06 AM 10.7530 -80.1260 320° Northwest 490 564 36,000  Level FlightAware ADS-B
Wed 03:07:41 AM 10.8150 -80.1790 320° Northwest 490 564 36,000  Level FlightAware ADS-B
Wed 03:08:16 AM 10.8770 -80.2320 320° Northwest 489 563 36,000  Level FlightAware ADS-B
Wed 03:08:52 AM 10.9400 -80.2860 320° Northwest 491 565 36,000  Level FlightAware ADS-B
Wed 03:09:27 AM 11.0030 -80.3400 320° Northwest 492 566 36,000  Level FlightAware ADS-B
Wed 03:10:02 AM 11.0620 -80.3900 320° Northwest 491 565 36,000  Level FlightAware ADS-B
Wed 03:10:37 AM 11.1270 -80.4470 319° Northwest 489 563 36,000  Level FlightAware ADS-B
Wed 03:11:23 AM 11.1960 -80.5060 320° Northwest 488 562 36,000  Level FlightAware ADS-B
Wed 03:11:52 AM 11.2540 -80.5550 320° Northwest 489 563 36,000  Level FlightAware ADS-B
Wed 03:12:34 AM 11.3200 -80.6130 319° Northwest 489 563 36,000  Level FlightAware ADS-B
Wed 03:13:10 AM 11.3720 -80.6600 318° Northwest 489 563 36,000  Level FlightAware ADS-B
Wed 03:13:46 AM 11.4240 -80.7060 319° Northwest 489 563 36,000  Level FlightAware ADS-B
Wed 03:14:21 AM 11.4750 -80.7510 319° Northwest 489 563 36,000  Level FlightAware ADS-B
Wed 03:14:57 AM 11.5270 -80.7970 319° Northwest 489 563 36,000  Level FlightAware ADS-B
Wed 03:15:33 AM 11.5790 -80.8440 318° Northwest 489 563 36,000  Level FlightAware ADS-B
Wed 03:16:09 AM 11.6320 -80.8900 320° Northwest 489 563 36,000  Level FlightAware ADS-B
Wed 03:16:45 AM 11.6840 -80.9360 319° Northwest 489 563 36,000  Level FlightAware ADS-B
Wed 03:17:22 AM 11.7380 -80.9840 319° Northwest 489 563 36,000  Level FlightAware ADS-B
Wed 03:17:58 AM 11.7900 -81.0300 319° Northwest 489 563 36,000  Level FlightAware ADS-B
Wed 03:18:34 AM 11.8420 -81.0770 319° Northwest 489 563 36,000  Level FlightAware ADS-B
Wed 03:19:11 AM 11.8960 -81.1250 319° Northwest 489 563 36,000  Level FlightAware ADS-B
Wed 03:19:47 AM 11.9480 -81.1710 319° Northwest 489 563 36,000  Level FlightAware ADS-B
Wed 03:20:24 AM 12.0020 -81.2190 319° Northwest 489 563 36,000  Level FlightAware ADS-B
Wed 03:21:01 AM 12.0550 -81.2660 319° Northwest 489 563 36,000  Level FlightAware ADS-B
Wed 03:21:37 AM 12.1080 -81.3130 319° Northwest 489 563 36,000  Level FlightAware ADS-B
Wed 03:24:00 AM 12.3478 -81.5080 322° Northwest  Level FlightAware Approximate
Wed 03:25:00 AM 12.4483 -81.5899 322° Northwest  Level FlightAware Approximate
Wed 03:26:00 AM 12.5489 -81.6719 321° Northwest  Level FlightAware Approximate
Wed 03:27:00 AM 12.6397 -81.7650 312° West  Level FlightAware Approximate
Wed 03:28:00 AM 12.7249 -81.8635 312° West  Level FlightAware Approximate
Wed 03:29:00 AM 12.8102 -81.9621 312° West  Level FlightAware Approximate
Wed 03:30:00 AM 12.8954 -82.0608 312° West  Level FlightAware Approximate
Wed 03:31:00 AM 12.9806 -82.1595 312° West  Level FlightAware Approximate
Wed 03:32:00 AM 13.0657 -82.2583 312° West  Level FlightAware Approximate
Wed 03:33:00 AM 13.1508 -82.3571 311° West  Level FlightAware Approximate
Wed 03:34:00 AM 13.2359 -82.4561 311° West  Level FlightAware Approximate
Wed 03:35:00 AM 13.3209 -82.5551 311° West  Level FlightAware Approximate
Wed 03:36:00 AM 13.4059 -82.6541 311° West  Level FlightAware Approximate
Wed 03:37:00 AM 13.4933 -82.7510 313° West  Level FlightAware Approximate
Wed 03:38:00 AM 13.5810 -82.8477 313° West  Level FlightAware Approximate
Wed 03:39:00 AM 13.6686 -82.9444 313° West  Level FlightAware Approximate
Wed 03:40:00 AM 13.7562 -83.0412 313° West  Level FlightAware Approximate
Wed 03:41:00 AM 13.8437 -83.1380 313° West  Level FlightAware Approximate
Wed 03:42:00 AM 13.9312 -83.2350 313° West  Level FlightAware Approximate
Wed 03:43:00 AM 14.0187 -83.3320 313° West  Level FlightAware Approximate
Wed 03:44:00 AM 14.1286 -83.3927 342° North  Level FlightAware Approximate
Wed 03:45:00 AM 14.2509 -83.4333 342° North  Level FlightAware Approximate
Wed 03:46:00 AM 14.3732 -83.4740 342° North  Level FlightAware Approximate
Wed 03:47:00 AM 14.4956 -83.5147 342° North  Level FlightAware Approximate
Wed 03:48:00 AM 14.6179 -83.5554 342° North  Level FlightAware Approximate
Wed 03:49:00 AM 14.7402 -83.5962 342° North  Level FlightAware Approximate
Wed 03:50:00 AM 14.8624 -83.6370 342° North  Level FlightAware Approximate
Wed 03:51:00 AM 14.9847 -83.6778 342° North  Level FlightAware Approximate
Wed 03:52:00 AM 15.1070 -83.7188 342° North  Level FlightAware Approximate
Wed 03:53:00 AM 15.2293 -83.7597 342° North  Level FlightAware Approximate
Wed 03:54:00 AM 15.3431 -83.8208 331° Northwest  Level FlightAware Approximate
Wed 03:55:00 AM 15.4552 -83.8860 331° Northwest  Level FlightAware Approximate
Wed 03:56:00 AM 15.5672 -83.9513 331° Northwest  Level FlightAware Approximate
Wed 03:57:00 AM 15.6793 -84.0167 331° Northwest  Level FlightAware Approximate
Wed 03:58:00 AM 15.7913 -84.0821 331° Northwest  Level FlightAware Approximate
Wed 03:59:00 AM 15.9033 -84.1476 331° Northwest  Level FlightAware Approximate
Wed 04:00:00 AM 16.0152 -84.2132 331° Northwest  Level FlightAware Approximate
Wed 04:01:00 AM 16.1272 -84.2789 331° Northwest  Level FlightAware Approximate
Wed 04:02:00 AM 16.2391 -84.3446 331° Northwest  Level FlightAware Approximate
Wed 04:03:00 AM 16.3512 -84.4101 332° Northwest  Level FlightAware Approximate
Wed 04:04:00 AM 16.4642 -84.4738 332° Northwest  Level FlightAware Approximate
Wed 04:05:00 AM 16.5772 -84.5377 332° Northwest  Level FlightAware Approximate
Wed 04:06:00 AM 16.6901 -84.6016 332° Northwest  Level FlightAware Approximate
Wed 04:07:00 AM 16.8008 -84.6697 329° Northwest  Level FlightAware Approximate
Wed 04:08:00 AM 16.9108 -84.7392 329° Northwest  Level FlightAware Approximate
Wed 04:09:00 AM 17.0208 -84.8087 329° Northwest  Level FlightAware Approximate
Wed 04:10:00 AM 17.1326 -84.8749 331° Northwest  Level FlightAware Approximate
Wed 04:11:00 AM 17.2447 -84.9407 331° Northwest  Level FlightAware Approximate
Wed 04:12:00 AM 17.3567 -85.0066 331° Northwest  Level FlightAware Approximate
Wed 04:13:00 AM 17.4688 -85.0726 331° Northwest  Level FlightAware Approximate
Wed 04:14:00 AM 17.5808 -85.1386 331° Northwest  Level FlightAware Approximate
Wed 04:15:00 AM 17.6961 -85.1980 335° Northwest  Level FlightAware Approximate
Wed 04:16:00 AM 17.8084 -85.2634 329° Northwest  Level FlightAware Approximate
Wed 04:17:00 AM 17.9189 -85.3324 329° Northwest  Level FlightAware Approximate
Wed 04:17:03 AM 18.4030 -85.8450 329° Northwest 500 575 36,000  Level FlightAware ADS-B
Wed 04:17:39 AM 18.4810 -85.8790 338° Northwest 499 574 36,000  Level FlightAware ADS-B
Wed 04:18:15 AM 18.5570 -85.9110 338° Northwest 500 575 36,000  Level FlightAware ADS-B
Wed 04:18:47 AM 18.6260 -85.9410 338° Northwest 501 577 36,000  Level FlightAware ADS-B
Wed 04:19:23 AM 18.7050 -85.9740 338° Northwest 502 578 36,000  Level FlightAware ADS-B
Wed 04:19:59 AM 18.7810 -86.0070 338° Northwest 503 579 36,000  Level FlightAware ADS-B
Wed 04:20:33 AM 18.8550 -86.0380 338° Northwest 504 580 36,000  Level FlightAware ADS-B
Wed 04:21:09 AM 18.9340 -86.0720 338° Northwest 503 579 36,000  Level FlightAware ADS-B
Wed 04:21:45 AM 19.0130 -86.1060 338° Northwest 503 579 36,000  Level FlightAware ADS-B
Wed 04:22:17 AM 19.0820 -86.1360 338° Northwest 503 579 36,000  Level FlightAware ADS-B
Wed 04:22:53 AM 19.1590 -86.1690 338° Northwest 504 580 36,000  Level FlightAware ADS-B
Wed 04:23:29 AM 19.2370 -86.2030 338° Northwest 505 581 36,000  Level FlightAware ADS-B
Wed 04:24:01 AM 19.3050 -86.2320 338° Northwest 507 583 36,000  Level FlightAware ADS-B
Wed 04:24:37 AM 19.3850 -86.2670 338° Northwest 508 585 36,000  Level FlightAware ADS-B
Wed 04:25:13 AM 19.4640 -86.3010 338° Northwest 508 585 36,000  Level FlightAware ADS-B
Wed 04:25:49 AM 19.5410 -86.3340 338° Northwest 507 583 36,000  Level FlightAware ADS-B
Wed 04:26:25 AM 19.6200 -86.3700 337° Northwest 507 583 36,000  Level FlightAware ADS-B
Wed 04:26:57 AM 19.6840 -86.4070 331° Northwest 506 582 36,000  Level FlightAware ADS-B
Wed 04:27:33 AM 19.7590 -86.4530 330° Northwest 508 585 36,000  Level FlightAware ADS-B
Wed 04:28:10 AM 19.8330 -86.4980 330° Northwest 508 585 36,000  Level FlightAware ADS-B
Wed 04:28:41 AM 19.8990 -86.5390 330° Northwest 507 583 36,000  Level FlightAware ADS-B
Wed 04:29:17 AM 19.9710 -86.5830 330° Northwest 505 581 36,000  Level FlightAware ADS-B
Wed 04:29:55 AM 20.0490 -86.6300 330° Northwest 502 578 36,000  Level FlightAware ADS-B
Wed 04:30:27 AM 20.1130 -86.6690 330° Northwest 500 575 36,000  Level FlightAware ADS-B
Wed 04:31:03 AM 20.1850 -86.7140 330° Northwest 500 575 36,000  Level FlightAware ADS-B
Wed 04:31:37 AM 20.2530 -86.7550 331° Northwest 498 573 36,000  Level FlightAware ADS-B
Wed 04:32:09 AM 20.3170 -86.7940 330° Northwest 496 571 36,000  Level FlightAware ADS-B
Wed 04:32:47 AM 20.3920 -86.8410 330° Northwest 493 567 36,000  Level FlightAware ADS-B
Wed 04:33:24 AM 20.4640 -86.8850 330° Northwest 492 566 36,000  Level FlightAware ADS-B
Wed 04:34:00 AM 20.5340 -86.9310 328° Northwest 492 566 36,000  Level FlightAware ADS-B
Wed 04:34:35 AM 20.6010 -86.9790 326° Northwest 494 568 36,000  Level FlightAware ADS-B
Wed 04:35:07 AM 20.6630 -87.0230 326° Northwest 496 571 36,000  Level FlightAware ADS-B
Wed 04:35:43 AM 20.7320 -87.0720 326° Northwest 495 570 36,000  Level FlightAware ADS-B
Wed 04:36:19 AM 20.8010 -87.1210 326° Northwest 496 571 36,000  Level FlightAware ADS-B
Wed 04:36:55 AM 20.8690 -87.1690 327° Northwest 497 572 36,000  Level FlightAware ADS-B
Wed 04:37:27 AM 20.9290 -87.2130 326° Northwest 498 573 36,000  Level FlightAware ADS-B
Wed 04:38:04 AM 21.0010 -87.2640 327° Northwest 497 572 36,000  Level FlightAware ADS-B
Wed 04:38:36 AM 21.0620 -87.3080 326° Northwest 497 572 36,000  Level FlightAware ADS-B
Wed 04:39:10 AM 21.1280 -87.3550 326° Northwest 497 572 36,000  Level FlightAware ADS-B
Wed 04:39:46 AM 21.1940 -87.4030 326° Northwest 498 573 36,000  Level FlightAware ADS-B
Wed 04:40:25 AM 21.2700 -87.4580 326° Northwest 498 573 36,000  Level FlightAware ADS-B
Wed 04:41:00 AM 21.3380 -87.5070 326° Northwest 498 573 36,000  Level FlightAware ADS-B
Wed 04:41:32 AM 21.4000 -87.5510 327° Northwest 497 572 36,000  Level FlightAware ADS-B
Wed 04:42:09 AM 21.4700 -87.6020 326° Northwest 496 571 36,000  Level FlightAware ADS-B
Wed 04:42:43 AM 21.5350 -87.6490 326° Northwest 496 571 36,000  Level FlightAware ADS-B
Wed 04:43:21 AM 21.6080 -87.7010 326° Northwest 496 571 36,000  Level FlightAware ADS-B
Wed 04:43:53 AM 21.6680 -87.7450 326° Northwest 496 571 36,000  Level FlightAware ADS-B
Wed 04:44:29 AM 21.7380 -87.7960 326° Northwest 496 571 36,000  Level FlightAware ADS-B
Wed 04:45:01 AM 21.7960 -87.8380 326° Northwest 495 570 36,000  Level FlightAware ADS-B
Wed 04:45:37 AM 21.8650 -87.8890 326° Northwest 494 568 36,000  Level FlightAware ADS-B
Wed 04:46:12 AM 21.9130 -87.9250 325° Northwest 494 568 36,000  Level FlightAware ADS-B
Wed 04:46:46 AM 21.9840 -87.9780 325° Northwest 495 570 36,000  Level FlightAware ADS-B
Wed 04:47:19 AM 22.0550 -88.0300 326° Northwest 497 572 36,000  Level FlightAware ADS-B
Wed 04:47:55 AM 22.1210 -88.0790 325° Northwest 498 573 36,000  Level FlightAware ADS-B
Wed 04:48:31 AM 22.1880 -88.1290 325° Northwest 498 573 36,000  Level FlightAware ADS-B
Wed 04:49:12 AM 22.2560 -88.1790 326° Northwest 497 572 36,000  Level FlightAware ADS-B
Wed 04:49:52 AM 22.3360 -88.2370 326° Northwest 496 571 36,000  Level FlightAware ADS-B
Wed 04:50:29 AM 22.4120 -88.2930 326° Northwest 496 571 36,000  Level FlightAware ADS-B
Wed 04:51:15 AM 22.5070 -88.3630 326° Northwest 498 573 36,000  Level FlightAware ADS-B
Wed 04:51:51 AM 22.5760 -88.4130 326° Northwest 500 575 36,000  Level FlightAware ADS-B
Wed 04:52:27 AM 22.6450 -88.4640 326° Northwest 501 577 36,000  Level FlightAware ADS-B
Wed 04:52:59 AM 22.7040 -88.5080 325° Northwest 500 575 36,000  Level FlightAware ADS-B
Wed 04:53:33 AM 22.7700 -88.5560 326° Northwest 498 573 36,000  Level FlightAware ADS-B
Wed 04:54:09 AM 22.8400 -88.6080 326° Northwest 497 572 36,000  Level FlightAware ADS-B
Wed 04:54:47 AM 22.9130 -88.6620 326° Northwest 498 573 36,000  Level FlightAware ADS-B
Wed 04:55:17 AM 22.9690 -88.7030 326° Northwest 498 573 36,000  Level FlightAware ADS-B
Wed 04:55:58 AM 22.9850 -88.7150 325° Northwest 498 573 36,000  Level FlightAware ADS-B
Wed 04:56:39 AM 23.1260 -88.8200 326° Northwest 495 570 36,000  Level FlightAware ADS-B
Wed 04:57:11 AM 23.1860 -88.8640 326° Northwest 494 568 36,000  Level FlightAware ADS-B
Wed 04:57:56 AM 23.2150 -88.8860 325° Northwest 494 568 36,000  Level FlightAware ADS-B
Wed 04:58:26 AM 23.2690 -88.9260 326° Northwest 493 567 36,000  Level FlightAware ADS-B
Wed 04:59:02 AM 23.3420 -88.9800 326° Northwest 494 568 36,000  Level FlightAware ADS-B
Wed 04:59:40 AM 23.4650 -89.0720 326° Northwest 495 570 36,000  Level FlightAware ADS-B
Wed 05:00:18 AM 23.4880 -89.0890 326° Northwest 494 568 36,000  Level FlightAware ADS-B
Wed 05:00:56 AM 23.6080 -89.1800 325° Northwest 493 567 36,000  Level FlightAware ADS-B
Wed 05:01:31 AM 23.6260 -89.1930 327° Northwest 494 568 36,000  Level FlightAware ADS-B
Wed 05:02:02 AM 23.6860 -89.2380 326° Northwest 493 567 36,000  Level FlightAware ADS-B
Wed 05:02:41 AM 23.7640 -89.2970 325° Northwest 492 566 36,000  Level FlightAware ADS-B
Wed 05:03:23 AM 23.8250 -89.3430 325° Northwest 492 566 36,000  Level FlightAware ADS-B
Wed 05:03:59 AM 23.8830 -89.3870 325° Northwest 492 566 36,000  Level FlightAware ADS-B
Wed 05:04:36 AM 23.9410 -89.4320 325° Northwest 492 566 36,000  Level FlightAware ADS-B
Wed 05:05:14 AM 24.0330 -89.4990 326° Northwest 492 566 36,000  Level FlightAware ADS-B
Wed 05:05:58 AM 24.1150 -89.5610 325° Northwest 492 566 36,000  Level FlightAware ADS-B
Wed 05:06:44 AM 24.1920 -89.6190 326° Northwest 493 567 36,000  Level FlightAware ADS-B
Wed 05:07:41 AM 24.2930 -89.6950 326° Northwest 492 566 36,000  Level FlightAware ADS-B
Wed 05:08:17 AM 24.3500 -89.7390 325° Northwest 492 566 36,000  Level FlightAware ADS-B
Wed 05:08:53 AM 24.4070 -89.7830 325° Northwest 492 566 36,000  Level FlightAware ADS-B
Wed 05:09:29 AM 24.4640 -89.8270 325° Northwest 492 566 36,000  Level FlightAware ADS-B
Wed 05:10:06 AM 24.5230 -89.8720 325° Northwest 492 566 36,000  Level FlightAware ADS-B
Wed 05:10:42 AM 24.5800 -89.9160 325° Northwest 492 566 36,000  Level FlightAware ADS-B
Wed 05:11:18 AM 24.6370 -89.9600 325° Northwest 492 566 36,000  Level FlightAware ADS-B
Wed 05:11:57 AM 24.6990 -90.0070 325° Northwest 492 566 36,000  Level FlightAware ADS-B
Wed 05:12:33 AM 24.7560 -90.0510 325° Northwest 492 566 36,000  Level FlightAware ADS-B
Wed 05:13:09 AM 24.8130 -90.0950 325° Northwest 492 566 36,000  Level FlightAware ADS-B
Wed 05:13:45 AM 24.8700 -90.1390 325° Northwest 492 566 36,000  Level FlightAware ADS-B
Wed 05:14:21 AM 24.9270 -90.1830 325° Northwest 492 566 36,000  Level FlightAware ADS-B
Wed 05:14:58 AM 24.9860 -90.2290 325° Northwest 492 566 36,000  Level FlightAware ADS-B
Wed 05:15:35 AM 25.0440 -90.2740 325° Northwest 492 566 36,000  Level FlightAware ADS-B
Wed 05:16:11 AM 25.1010 -90.3180 325° Northwest 492 566 36,000  Level FlightAware ADS-B
Wed 05:16:47 AM 25.1590 -90.3620 326° Northwest 492 566 36,000  Level FlightAware ADS-B
Wed 05:19:00 AM 25.3924 -90.5398 325° Northwest  Level FlightAware Approximate
Wed 05:20:00 AM 25.4974 -90.6206 325° Northwest  Level FlightAware Approximate
Wed 05:21:00 AM 25.6024 -90.7015 325° Northwest  Level FlightAware Approximate
Wed 05:22:00 AM 25.7073 -90.7826 325° Northwest  Level FlightAware Approximate
Wed 05:23:00 AM 25.8121 -90.8638 325° Northwest  Level FlightAware Approximate
Wed 05:24:00 AM 25.9169 -90.9452 325° Northwest  Level FlightAware Approximate
Wed 05:25:00 AM 26.0217 -91.0267 325° Northwest  Level FlightAware Approximate
Wed 05:26:00 AM 26.1264 -91.1084 325° Northwest  Level FlightAware Approximate
Wed 05:27:00 AM 26.2311 -91.1902 325° Northwest  Level FlightAware Approximate
Wed 05:28:00 AM 26.3357 -91.2721 325° Northwest  Level FlightAware Approximate
Wed 05:29:00 AM 26.4386 -91.3569 323° Northwest  Level FlightAware Approximate
Wed 05:30:00 AM 26.5411 -91.4422 323° Northwest  Level FlightAware Approximate
Wed 05:30:43 AM 26.9506 -91.7678 324° Northwest 489 563 36,000  Level Houston Center
Wed 05:31:00 AM 26.6436 -91.5277 323° Northwest  Level FlightAware Approximate
Wed 05:31:43 AM 27.0483 -91.8478 324° Northwest 488 562 36,000  Level Houston Center
Wed 05:32:00 AM 26.7460 -91.6134 323° Northwest  Level FlightAware Approximate
Wed 05:32:44 AM 27.1592 -91.9367 324° Northwest 489 563 35,900  Level Houston Center
Wed 05:33:00 AM 26.8518 -91.6938 326° Northwest  Level FlightAware Approximate
Wed 05:33:44 AM 27.2686 -92.0261 324° Northwest 488 562 35,900  Level Houston Center
Wed 05:34:00 AM 26.9577 -91.7742 326° Northwest  Level FlightAware Approximate
Wed 05:34:44 AM 27.3781 -92.1153 324° Northwest 486 559 35,900  Level Houston Center
Wed 05:35:00 AM 27.0635 -91.8547 326° Northwest  Level FlightAware Approximate
Wed 05:35:44 AM 27.4872 -92.2025 325° Northwest 483 556 35,900  Level Houston Center
Wed 05:36:00 AM 27.1693 -91.9355 324° Northwest  Level FlightAware Approximate
Wed 05:36:44 AM 27.6006 -92.2869 327° Northwest 487 560 35,900  Level Houston Center
Wed 05:37:45 AM 27.7128 -92.3717 326° Northwest 485 558 35,900  Level Houston Center
Wed 05:38:45 AM 27.8256 -92.4556 327° Northwest 485 558 35,900  Level Houston Center
Wed 05:39:45 AM 27.9372 -92.5406 326° Northwest 484 557 35,900  Level Houston Center
Wed 05:40:45 AM 28.0469 -92.6256 326° Northwest 480 552 35,900  Level Houston Center
Wed 05:41:45 AM 28.1586 -92.7097 326° Northwest 482 555 35,900 50 Level Houston Center
Wed 05:42:46 AM 28.2694 -92.7942 326° Northwest 480 552 36,000  Climbing Houston Center
Wed 05:43:46 AM 28.3806 -92.8778 326° Northwest 480 552 35,900  Descending Houston Center
Wed 05:44:46 AM 28.4906 -92.9606 327° Northwest 476 548 36,000 15 Climbing Houston Center
Wed 05:50:37 AM 29.1523 -93.4701 327° Northwest 474 545 36,000  Level FlightAware ADS-B
Wed 05:51:07 AM 29.1954 -93.5037 326° Northwest 474 545 36,000  Level FlightAware ADS-B
Wed 05:51:43 AM 29.2688 -93.5609 326° Northwest 474 545 36,000  Level FlightAware ADS-B
Wed 05:52:16 AM 29.3324 -93.6105 326° Northwest 474 545 36,000  Level FlightAware ADS-B
Wed 05:52:46 AM 29.3855 -93.6521 326° Northwest 474 545 36,000  Level FlightAware ADS-B
Wed 05:53:17 AM 29.4413 -93.6956 326° Northwest 474 545 36,000  Level FlightAware ADS-B
Wed 05:53:56 AM 29.5128 -93.7516 326° Northwest 474 545 36,000  Level FlightAware ADS-B
Wed 05:54:43 AM 29.5942 -93.8155 326° Northwest 475 547 36,000  Level FlightAware ADS-B
Wed 05:55:23 AM 29.6480 -93.8600 324° Northwest 474 545 36,000  Level FlightAware ADS-B
Wed 05:55:57 AM 29.7320 -93.9240 327° Northwest 473 544 36,000  Level FlightAware ADS-B
Wed 05:56:34 AM 29.7980 -93.9760 326° Northwest 471 542 36,000  Level FlightAware ADS-B
Wed 05:57:06 AM 29.8548 -94.0209 326° Northwest 470 541 36,000  Level FlightAware ADS-B
Wed 05:57:40 AM 29.9160 -94.0690 326° Northwest 468 539 36,000  Level FlightAware ADS-B
Wed 05:58:20 AM 29.9880 -94.1260 326° Northwest 468 539 36,000  Level FlightAware ADS-B
Wed 05:58:53 AM 30.0460 -94.1730 325° Northwest 470 541 36,000  Level FlightAware ADS-B
Wed 05:59:30 AM 30.1120 -94.2240 326° Northwest 469 540 36,000  Level FlightAware ADS-B
Wed 06:00:05 AM 30.1740 -94.2740 325° Northwest 467 537 36,000  Level FlightAware ADS-B
Wed 06:00:36 AM 30.2300 -94.3190 325° Northwest 465 535 36,000  Level FlightAware ADS-B
Wed 06:01:11 AM 30.2930 -94.3690 326° Northwest 463 533 36,000  Level FlightAware ADS-B
Wed 06:01:50 AM 30.3610 -94.4240 325° Northwest 462 532 36,000  Level FlightAware ADS-B
Wed 06:02:25 AM 30.4230 -94.4730 326° Northwest 461 531 36,000  Level FlightAware ADS-B
Wed 06:02:58 AM 30.4810 -94.5200 325° Northwest 461 531 36,000  Level FlightAware ADS-B
Wed 06:03:34 AM 30.5420 -94.5690 325° Northwest 461 531 36,000  Level FlightAware ADS-B
Wed 06:04:11 AM 30.6080 -94.6220 325° Northwest 461 531 36,000  Level FlightAware ADS-B
Wed 06:04:42 AM 30.6620 -94.6660 325° Northwest 461 531 36,000  Level FlightAware ADS-B
Wed 06:05:18 AM 30.7260 -94.7170 326° Northwest 461 531 36,000  Level FlightAware ADS-B
Wed 06:05:53 AM 30.7880 -94.7670 325° Northwest 462 532 36,000  Level FlightAware ADS-B
Wed 06:06:31 AM 30.8530 -94.8200 325° Northwest 463 533 36,000  Level FlightAware ADS-B
Wed 06:07:02 AM 30.9080 -94.8650 325° Northwest 463 533 36,000  Level FlightAware ADS-B
Wed 06:07:39 AM 30.9730 -94.9180 325° Northwest 462 532 36,000  Level FlightAware ADS-B
Wed 06:08:10 AM 31.0270 -94.9620 325° Northwest 463 533 36,000  Level FlightAware ADS-B
Wed 06:08:49 AM 31.0940 -95.0160 325° Northwest 462 532 36,000  Level FlightAware ADS-B
Wed 06:09:29 AM 31.1640 -95.0730 325° Northwest 462 532 36,000  Level FlightAware ADS-B
Wed 06:10:07 AM 31.2310 -95.1280 325° Northwest 462 532 36,000  Level FlightAware ADS-B
Wed 06:10:40 AM 31.2850 -95.1730 325° Northwest 462 532 36,000  Level FlightAware ADS-B
Wed 06:10:57 AM 31.3150 -95.2060 317° Northwest 458 527 36,000  Level FlightAware ADS-B
Wed 06:11:48 AM 31.3900 -95.2920 316° Northwest 459 528 36,000 -207 Level FlightAware ADS-B
Wed 06:12:24 AM 31.4440 -95.3560 315° West 451 519 35,700 -1,304 Descending FlightAware ADS-B
Wed 06:12:57 AM 31.4950 -95.4150 315° West 460 529 34,500 -1,941 Descending FlightAware ADS-B
Wed 06:13:32 AM 31.5490 -95.4770 316° Northwest 464 534 33,500 -1,667 Descending FlightAware ADS-B
Wed 06:14:09 AM 31.6050 -95.5410 316° Northwest 465 535 32,500 -1,890 Descending FlightAware ADS-B
Wed 06:14:45 AM 31.6610 -95.6040 316° Northwest 456 525 31,200 -1,941 Descending FlightAware ADS-B
Wed 06:15:17 AM 31.7080 -95.6590 315° West 448 516 30,300 -1,941 Descending FlightAware ADS-B
Wed 06:15:53 AM 31.7610 -95.7200 316° Northwest 441 507 29,000 -2,167 Descending FlightAware ADS-B
Wed 06:16:29 AM 31.8130 -95.7810 315° West 435 501 27,700 -2,087 Descending FlightAware ADS-B
Wed 06:17:02 AM 31.8600 -95.8360 315° West 428 493 26,600 -2,029 Descending FlightAware ADS-B
Wed 06:17:37 AM 31.9080 -95.8920 315° West 421 484 25,400 -2,000 Descending FlightAware ADS-B
Wed 06:18:14 AM 31.9580 -95.9510 315° West 412 474 24,200 -1,917 Descending FlightAware ADS-B
Wed 06:18:49 AM 32.0060 -96.0060 316° Northwest 404 465 23,100 -1,853 Descending FlightAware ADS-B
Wed 06:19:22 AM 32.0500 -96.0590 314° West 398 458 22,100 -1,886 Descending FlightAware ADS-B
Wed 06:19:59 AM 32.0970 -96.1130 316° Northwest 392 451 20,900 -1,859 Descending FlightAware ADS-B
Wed 06:20:33 AM 32.1410 -96.1650 315° West 386 444 19,900 -1,775 Descending FlightAware ADS-B
Wed 06:21:10 AM 32.1880 -96.2200 315° West 381 438 18,800 -1,739 Descending FlightAware ADS-B
Wed 06:21:42 AM 32.2270 -96.2670 314° West 376 433 17,900 -1,701 Descending FlightAware ADS-B
Wed 06:22:17 AM 32.2690 -96.3160 315° West 371 427 16,900 -1,739 Descending FlightAware ADS-B
Wed 06:22:51 AM 32.3100 -96.3650 315° West 366 421 15,900 -1,775 Descending FlightAware ADS-B
Wed 06:23:28 AM 32.3550 -96.4180 315° West 362 417 14,800 -1,726 Descending FlightAware ADS-B
Wed 06:24:04 AM 32.3970 -96.4670 315° West 359 413 13,800 -1,941 Descending FlightAware ADS-B
Wed 06:24:36 AM 32.4340 -96.5120 314° West 363 418 12,600 -1,941 Descending FlightAware ADS-B
Wed 06:25:12 AM 32.4770 -96.5630 315° West 359 413 11,600 -1,315 Descending FlightAware ADS-B
Wed 06:25:49 AM 32.5200 -96.6130 316° Northwest 354 407 11,000 -493 Descending FlightAware ADS-B
Wed 06:26:25 AM 32.5610 -96.6620 315° West 353 406 11,000  Level FlightAware ADS-B
Wed 06:26:57 AM 32.5980 -96.7070 314° West 354 407 11,000  Level FlightAware ADS-B
Wed 06:27:33 AM 32.6400 -96.7560 316° Northwest 353 406 11,000  Level FlightAware ADS-B
Wed 06:28:09 AM 32.6810 -96.8060 314° West 352 405 11,000  Level FlightAware ADS-B
Wed 06:28:44 AM 32.7200 -96.8530 315° West 319 367 11,000  Level FlightAware ADS-B
Wed 06:29:16 AM 32.7530 -96.8890 317° Northwest 289 333 11,000  Level FlightAware ADS-B
Wed 06:29:24 AM 32.7620 -96.8950 331° Northwest 283 326 11,000  Level FlightAware ADS-B
Wed 06:29:41 AM 32.7830 -96.9020 344° North 275 316 11,000 -245 Level FlightAware ADS-B
Wed 06:30:13 AM 32.8230 -96.9030 359° North 273 314 10,800 -806 Descending FlightAware ADS-B
Wed 06:30:48 AM 32.8690 -96.9040 359° North 272 313 10,100 -980 Descending FlightAware ADS-B
Wed 06:31:02 AM 32.8860 -96.9040 360° North 266 306 10,000 -686 Descending FlightAware ADS-B
Wed 06:31:23 AM 32.9100 -96.9040 360° North 257 296 9,700 -955 Descending FlightAware ADS-B
Wed 06:31:46 AM 32.9380 -96.9040 360° North 252 290 9,300 -1,167 Descending FlightAware ADS-B
Wed 06:31:59 AM 32.9520 -96.9040 360° North 251 289 9,000 -1,313 Descending FlightAware ADS-B
Wed 06:32:18 AM 32.9750 -96.9050 358° North 251 289 8,600 -1,538 Descending FlightAware ADS-B
Wed 06:32:38 AM 32.9990 -96.9050 360° North 248 285 8,000 -2,000 Descending FlightAware ADS-B
Wed 06:33:03 AM 33.0270 -96.9060 358° North 254 292 7,100 -2,195 Descending FlightAware ADS-B
Wed 06:33:19 AM 33.0460 -96.9060 360° North 257 296 6,500 -2,000 Descending FlightAware ADS-B
Wed 06:33:36 AM 33.0660 -96.9070 358° North 257 296 6,000 -1,895 Descending FlightAware ADS-B
Wed 06:33:57 AM 33.0910 -96.9070 360° North 256 295 5,300 -2,000 Descending FlightAware ADS-B
Wed 06:34:12 AM 33.1090 -96.9100 352° North 256 295 4,800 -1,895 Descending FlightAware ADS-B
Wed 06:34:16 AM 33.1130 -96.9130 328° Northwest 253 291 4,700 -1,800 Descending FlightAware ADS-B
Wed 06:34:22 AM 33.1190 -96.9170 331° Northwest 247 284 4,500 -1,500 Descending FlightAware ADS-B
Wed 06:34:32 AM 33.1260 -96.9270 310° West 230 265 4,300 -1,263 Descending FlightAware ADS-B
Wed 06:34:41 AM 33.1290 -96.9370 290° West 217 250 4,100 -1,500 Descending FlightAware ADS-B
Wed 06:34:48 AM 33.1290 -96.9450 270° West 209 241 3,900 -1,333 Descending FlightAware ADS-B
Wed 06:35:08 AM 33.1300 -96.9680 273° West 208 239 3,500 -1,125 Descending FlightAware ADS-B
Wed 06:35:20 AM 33.1300 -96.9820 270° West 205 236 3,300 -882 Descending FlightAware ADS-B
Wed 06:35:42 AM 33.1310 -97.0060 273° West 201 231 3,000 -480 Descending FlightAware ADS-B
Wed 06:36:10 AM 33.1240 -97.0320 252° West 170 196 2,900 -343 Descending FlightAware ADS-B
Wed 06:36:17 AM 33.1200 -97.0360 220° Southwest 165 190 2,800 -889 Descending FlightAware ADS-B
Wed 06:36:37 AM 33.1060 -97.0440 206° Southwest 165 190 2,500 -649 Descending FlightAware ADS-B
Wed 06:36:54 AM 33.0940 -97.0510 206° Southwest 171 197 2,400 -240 Descending FlightAware ADS-B
Wed 06:37:02 AM 33.0870 -97.0530 193° South 169 194 2,400  Level FlightAware ADS-B
Wed 06:37:20 AM 33.0740 -97.0540 184° South 165 190 2,400  Level FlightAware ADS-B
Wed 06:37:38 AM 33.0600 -97.0540 180° South 158 182 2,400  Level FlightAware ADS-B
Wed 06:38:04 AM 33.0410 -97.0540 180° South 159 183 2,400  Level FlightAware ADS-B
Wed 06:38:23 AM 33.0280 -97.0540 180° South 155 178 2,400  Level FlightAware ADS-B
Wed 06:38:44 AM 33.0120 -97.0540 180° South 157 181 2,400 -316 Level FlightAware ADS-B
Wed 06:39:01 AM 33.0000 -97.0540 180° South 154 177 2,200 -649 Descending FlightAware ADS-B
Wed 06:39:21 AM 32.9870 -97.0540 180° South 139 160 2,000 -750 Descending FlightAware ADS-B
Wed 06:39:41 AM 32.9740 -97.0540 180° South 132 152 1,700 -828 Descending FlightAware ADS-B
Wed 06:39:50 AM 32.9680 -97.0540 180° South 132 152 1,600 -563 Descending FlightAware ADS-B
Wed 06:40:13 AM 32.9540 -97.0540 180° South 130 150 1,400 -600 Descending FlightAware ADS-B
Wed 06:40:40 AM 32.9400 -97.0550 183° South 132 152 1,100 -358 Descending FlightAware ADS-B
Wed 06:41:20 AM 32.9170 -97.0550 180° South 137 158 1,000 -150 Descending FlightAware ADS-B

Login

Don't have an account? Register now (free) for customized features, flight alerts, and more!